Terminal Aerodrome Forecast
Issued by NWS

Home | Current Version | Previous Version | Graphics & Text | Print | Product List | Glossary Off
Versions: 1 2 3 4 5 6 7 8 9 10 11 12 13 14 15 16 17

000
FTUS41 KCLE 280855 AAA
TAFFDY
TAF AMD
KFDY 280855Z 2809/2906 15004KT P6SM SCT100 OVC250
     FM281000 14008KT P6SM VCSH SCT035 OVC050
     FM281500 12010KT 6SM BR VCSH BKN015 OVC025
      TEMPO 2817/2821 4SM -RA BR SCT008 OVC012
     FM290000 08008KT P6SM SCT015 OVC025
     FM290400 07006KT 6SM BR SCT025 BKN035=

USA.gov is the U.S. government's official web portal to all federal, state and local government web resources and services.